Time;durP1;ratioP1;P1;durP2;ratioP2;P2;SDS_P1;SDS_P2;PMS_P1;PMS_P2;Temp;Humidity;BMP_temperature;BMP_pressure;BME280_temperature;BME280_humidity;BME280_pressure;Samples;Min_cycle;Max_cycle;Signal;HPM_P1;HPM_P2
2023/04/12 00:00:16;;;;;;;8.50;2.38;;;11.00;98.60;;;;;;6269153;28;20053;-78
2023/04/12 00:03:19;;;;;;;4.45;3.03;;;10.90;98.80;;;;;;6271205;28;20092;-80
2023/04/12 00:06:31;;;;;;;3.50;2.33;;;10.90;99.40;;;;;;6269082;28;20135;-79
2023/04/12 00:09:35;;;;;;;3.03;2.75;;;10.70;99.90;;;;;;6274490;28;20053;-79
2023/04/12 00:12:36;;;;;;;3.38;2.45;;;10.50;99.90;;;;;;6272271;28;20045;-78
2023/04/12 00:15:38;;;;;;;7.55;3.05;;;10.30;99.90;;;;;;6270283;28;20052;-78
2023/04/12 00:18:41;;;;;;;4.40;4.00;;;10.20;99.90;;;;;;6271758;28;20049;-79
2023/04/12 00:21:43;;;;;;;4.55;2.53;;;10.00;99.90;;;;;;6271024;28;20073;-75
2023/04/12 00:24:46;;;;;;;5.65;3.33;;;9.90;99.90;;;;;;6277322;28;20041;-79
2023/04/12 00:27:48;;;;;;;6.72;2.67;;;9.80;99.90;;;;;;6269194;28;20391;-79
2023/04/12 00:30:49;;;;;;;5.68;2.30;;;9.70;99.90;;;;;;6269052;28;20059;-77
2023/04/12 00:33:51;;;;;;;4.78;2.90;;;9.70;99.90;;;;;;6269020;28;20120;-79
2023/04/12 00:36:53;;;;;;;3.65;2.50;;;9.60;99.90;;;;;;6268606;28;20052;-80
2023/04/12 00:39:56;;;;;;;4.95;3.17;;;9.50;99.90;;;;;;6267391;28;20052;-80
2023/04/12 00:42:58;;;;;;;6.60;2.88;;;9.50;99.90;;;;;;6267019;28;20048;-79
2023/04/12 00:45:59;;;;;;;4.18;2.28;;;9.50;99.90;;;;;;6265546;28;20056;-79
2023/04/12 00:49:02;;;;;;;4.75;2.17;;;9.50;99.90;;;;;;6266586;28;20132;-79
2023/04/12 00:52:07;;;;;;;4.90;1.98;;;9.40;99.90;;;;;;6267607;28;20713;-75
2023/04/12 00:55:10;;;;;;;4.35;2.75;;;9.40;99.90;;;;;;6269323;28;20072;-79
2023/04/12 00:58:13;;;;;;;11.00;2.95;;;9.40;99.90;;;;;;6267323;28;20454;-77
2023/04/12 01:01:18;;;;;;;3.78;3.40;;;9.40;99.90;;;;;;6271865;28;20112;-80
2023/04/12 01:04:21;;;;;;;4.38;3.05;;;9.40;99.90;;;;;;6269224;28;20047;-80
2023/04/12 01:07:36;;;;;;;6.45;3.10;;;9.40;99.90;;;;;;6268021;28;20045;-78
2023/04/12 01:10:47;;;;;;;3.75;2.17;;;9.50;99.90;;;;;;6269212;28;20071;-80
2023/04/12 01:13:55;;;;;;;8.25;2.95;;;9.50;99.90;;;;;;6268815;28;20410;-78
2023/04/12 01:17:01;;;;;;;6.63;2.83;;;9.50;99.90;;;;;;6267355;28;20049;-81
2023/04/12 01:20:12;;;;;;;7.22;2.67;;;9.40;99.90;;;;;;6266978;28;20060;-78
2023/04/12 01:23:28;;;;;;;4.53;2.90;;;9.40;99.90;;;;;;6266129;28;20065;-79
2023/04/12 01:26:43;;;;;;;6.47;2.70;;;9.40;99.90;;;;;;6265775;28;20041;-80
2023/04/12 01:29:48;;;;;;;9.30;3.22;;;9.40;99.90;;;;;;6278189;28;20060;-79
2023/04/12 01:32:52;;;;;;;9.95;2.38;;;9.30;99.90;;;;;;6269011;28;20045;-80
2023/04/12 01:35:54;;;;;;;9.85;2.72;;;9.30;99.90;;;;;;6267807;28;20037;-81
2023/04/12 01:38:57;;;;;;;5.32;2.22;;;9.30;99.90;;;;;;6269501;28;20048;-79
2023/04/12 01:41:59;;;;;;;3.08;2.45;;;9.20;99.90;;;;;;6268982;28;20059;-79
2023/04/12 01:45:03;;;;;;;6.38;2.67;;;9.20;99.90;;;;;;6267522;28;20383;-80
2023/04/12 01:48:07;;;;;;;5.35;2.67;;;9.20;99.90;;;;;;6267480;28;20048;-78
2023/04/12 01:51:15;;;;;;;5.22;2.40;;;9.20;99.90;;;;;;6266844;28;20053;-78
2023/04/12 01:54:22;;;;;;;9.68;2.90;;;9.20;99.90;;;;;;6268251;28;20052;-80
2023/04/12 01:57:24;;;;;;;3.45;2.30;;;9.20;99.90;;;;;;6263375;28;20041;-78
2023/04/12 02:00:28;;;;;;;4.70;2.97;;;9.10;99.90;;;;;;6268152;28;20049;-80
2023/04/12 02:03:31;;;;;;;5.43;2.55;;;9.10;99.90;;;;;;6268387;28;20052;-80
2023/04/12 02:06:34;;;;;;;5.43;2.65;;;9.10;99.90;;;;;;6268911;28;20049;-76
2023/04/12 02:09:38;;;;;;;8.85;3.20;;;9.10;99.90;;;;;;6268677;28;20851;-77
2023/04/12 02:12:39;;;;;;;5.38;2.60;;;9.10;99.90;;;;;;6274846;28;20041;-80
2023/04/12 02:15:43;;;;;;;2.72;2.53;;;9.10;99.90;;;;;;6269053;28;20052;-80
2023/04/12 02:18:44;;;;;;;5.10;2.35;;;9.10;99.90;;;;;;6270161;28;20079;-80
2023/04/12 02:21:46;;;;;;;4.60;2.25;;;9.10;99.90;;;;;;6268060;28;20889;-79
2023/04/12 02:24:48;;;;;;;6.65;2.88;;;9.20;99.90;;;;;;6266734;28;20122;-78
2023/04/12 02:27:49;;;;;;;2.45;2.22;;;9.10;99.90;;;;;;6269544;28;20052;-80
2023/04/12 02:30:52;;;;;;;3.72;2.55;;;9.10;99.90;;;;;;6268203;28;20049;-78
2023/04/12 02:33:54;;;;;;;4.75;2.47;;;9.10;99.90;;;;;;6267170;28;20053;-79
2023/04/12 02:36:56;;;;;;;4.40;2.88;;;9.10;99.90;;;;;;6273547;28;20128;-74
2023/04/12 02:40:01;;;;;;;2.50;2.28;;;9.10;99.90;;;;;;6272031;28;20044;-79
2023/04/12 02:43:02;;;;;;;2.78;2.38;;;9.10;99.90;;;;;;6272896;28;20052;-78
2023/04/12 02:46:06;;;;;;;5.95;2.10;;;9.10;99.90;;;;;;6272104;28;20068;-77
2023/04/12 02:49:08;;;;;;;4.15;2.20;;;9.10;99.90;;;;;;6270273;28;20093;-79
2023/04/12 02:52:09;;;;;;;5.97;2.80;;;9.10;99.90;;;;;;6270103;28;20045;-79
2023/04/12 02:55:11;;;;;;;7.55;2.42;;;9.00;99.90;;;;;;6271868;28;20068;-77
2023/04/12 02:58:13;;;;;;;2.78;2.30;;;9.00;99.90;;;;;;6269615;28;20380;-80
2023/04/12 03:01:16;;;;;;;2.40;1.95;;;9.00;99.90;;;;;;6272049;28;20071;-79
2023/04/12 03:04:18;;;;;;;3.30;2.83;;;9.00;99.90;;;;;;6272554;28;20041;-77
2023/04/12 03:07:20;;;;;;;6.28;2.20;;;9.00;99.90;;;;;;6269972;28;20048;-78
2023/04/12 03:10:22;;;;;;;4.53;2.70;;;9.00;99.90;;;;;;6270676;28;20148;-77
2023/04/12 03:13:24;;;;;;;2.42;2.22;;;9.00;99.90;;;;;;6275206;28;20064;-78
2023/04/12 03:16:28;;;;;;;5.47;3.60;;;9.00;99.90;;;;;;6276518;28;20045;-79
2023/04/12 03:19:31;;;;;;;13.02;2.50;;;8.90;99.90;;;;;;6275985;28;20500;-77
2023/04/12 03:22:33;;;;;;;3.38;2.80;;;9.00;99.90;;;;;;6276596;28;20060;-76
2023/04/12 03:25:36;;;;;;;5.45;2.38;;;8.90;99.90;;;;;;6286194;28;20044;-74
2023/04/12 03:28:37;;;;;;;8.32;2.30;;;8.90;99.90;;;;;;6277416;28;20503;-78
2023/04/12 03:31:40;;;;;;;3.47;1.85;;;8.90;99.90;;;;;;6258981;28;20071;-78
2023/04/12 03:34:42;;;;;;;3.55;2.45;;;8.80;99.90;;;;;;6270320;28;20048;-76
2023/04/12 03:37:44;;;;;;;4.13;2.67;;;8.80;99.90;;;;;;6275041;28;20084;-79
2023/04/12 03:40:45;;;;;;;3.03;2.33;;;8.70;99.90;;;;;;6271199;28;20052;-79
2023/04/12 03:43:47;;;;;;;4.97;2.90;;;8.70;99.90;;;;;;6274313;28;20051;-77
2023/04/12 03:46:50;;;;;;;3.97;2.42;;;8.70;99.90;;;;;;6273961;28;20041;-80
2023/04/12 03:49:55;;;;;;;5.07;2.25;;;8.70;99.90;;;;;;6273014;28;20053;-79
2023/04/12 03:52:57;;;;;;;3.60;2.30;;;8.70;99.90;;;;;;6274478;28;20037;-78
2023/04/12 03:55:58;;;;;;;3.38;2.08;;;8.60;99.90;;;;;;6263526;28;20053;-79
2023/04/12 03:59:00;;;;;;;3.10;2.58;;;8.60;99.90;;;;;;6271500;28;20048;-78
2023/04/12 04:02:03;;;;;;;6.82;2.28;;;8.60;99.90;;;;;;6273433;28;20060;-78
2023/04/12 04:05:05;;;;;;;7.40;2.63;;;8.60;99.90;;;;;;6272345;28;20187;-77
2023/04/12 04:08:07;;;;;;;2.75;2.30;;;8.50;99.90;;;;;;6262219;28;20065;-75
2023/04/12 04:11:09;;;;;;;3.83;2.78;;;8.50;99.90;;;;;;6271167;28;20072;-80
2023/04/12 04:14:11;;;;;;;5.55;2.60;;;8.50;99.90;;;;;;6271458;28;20056;-79
2023/04/12 04:17:14;;;;;;;3.42;2.55;;;8.50;99.90;;;;;;6269616;28;20083;-81
2023/04/12 04:20:16;;;;;;;3.13;2.03;;;8.50;99.90;;;;;;6265951;28;20044;-81
2023/04/12 04:23:18;;;;;;;5.80;2.72;;;8.60;99.90;;;;;;6246317;28;20045;-79
2023/04/12 04:26:32;;;;;;;7.78;2.17;;;8.60;99.90;;;;;;6262845;28;20892;-80
2023/04/12 04:29:35;;;;;;;3.55;2.80;;;8.50;99.90;;;;;;6292897;23;20052;-82
2023/04/12 04:32:38;;;;;;;4.05;2.55;;;8.50;99.90;;;;;;6293751;28;20177;-82
2023/04/12 04:35:41;;;;;;;5.40;2.30;;;8.60;99.90;;;;;;6289041;28;20036;-83
2023/04/12 04:38:43;;;;;;;2.55;2.28;;;8.60;99.90;;;;;;6292421;28;20049;-83
2023/04/12 04:41:45;;;;;;;3.38;2.40;;;8.60;99.90;;;;;;6296092;28;20493;-81
2023/04/12 04:44:49;;;;;;;6.43;3.20;;;8.60;99.90;;;;;;6296229;28;20044;-83
2023/04/12 04:47:53;;;;;;;3.30;3.00;;;8.70;99.90;;;;;;6296492;28;20122;-83
2023/04/12 04:50:55;;;;;;;5.95;2.97;;;8.70;99.90;;;;;;6296063;28;20054;-83
2023/04/12 04:53:57;;;;;;;4.68;3.78;;;8.70;99.90;;;;;;6294438;28;20052;-83
2023/04/12 04:57:00;;;;;;;10.73;4.68;;;8.80;99.90;;;;;;6289279;28;20051;-81
2023/04/12 05:00:09;;;;;;;4.53;3.08;;;8.80;99.90;;;;;;6293612;28;20051;-81
2023/04/12 05:03:12;;;;;;;4.20;3.28;;;8.80;99.90;;;;;;6289411;28;20044;-82
2023/04/12 05:06:14;;;;;;;5.65;3.65;;;8.80;99.90;;;;;;6295176;28;20052;-83
2023/04/12 05:09:16;;;;;;;10.45;3.17;;;8.90;99.90;;;;;;6294309;28;20048;-81
2023/04/12 05:12:17;;;;;;;7.53;3.67;;;8.90;99.90;;;;;;6292501;28;20049;-79
2023/04/12 05:15:20;;;;;;;5.88;3.65;;;8.90;99.90;;;;;;6295288;28;20060;-80
2023/04/12 05:18:23;;;;;;;15.23;4.65;;;8.90;99.90;;;;;;6291950;28;20052;-80
2023/04/12 05:21:25;;;;;;;9.27;3.85;;;9.00;99.90;;;;;;6293939;28;20056;-82
2023/04/12 05:24:26;;;;;;;5.60;3.50;;;9.00;99.90;;;;;;6290980;28;20036;-82
2023/04/12 05:27:29;;;;;;;7.97;3.58;;;9.00;99.90;;;;;;6290942;28;20041;-82
2023/04/12 05:30:31;;;;;;;7.93;5.32;;;9.00;99.90;;;;;;6288175;28;20044;-82
2023/04/12 05:33:35;;;;;;;7.68;3.10;;;9.00;99.90;;;;;;6293777;28;20061;-81
2023/04/12 05:36:37;;;;;;;4.32;3.20;;;9.00;99.90;;;;;;6292594;28;20048;-81
2023/04/12 05:39:39;;;;;;;8.57;3.67;;;9.00;99.90;;;;;;6289981;28;20047;-82
2023/04/12 05:42:40;;;;;;;3.47;2.63;;;9.00;99.90;;;;;;6294126;28;20052;-81
2023/04/12 05:45:42;;;;;;;11.77;4.22;;;9.00;99.90;;;;;;6292981;28;20052;-80
2023/04/12 05:48:45;;;;;;;6.18;3.42;;;9.00;99.90;;;;;;6291767;28;20037;-81
2023/04/12 05:51:47;;;;;;;7.72;3.92;;;9.00;99.90;;;;;;6290041;28;20055;-80
2023/04/12 05:54:48;;;;;;;7.38;3.55;;;9.10;99.90;;;;;;6286572;28;20056;-81
2023/04/12 05:57:50;;;;;;;6.93;3.67;;;9.10;99.90;;;;;;6291538;28;20431;-79
2023/04/12 06:00:53;;;;;;;5.93;3.63;;;9.10;99.90;;;;;;6293376;28;20045;-79
2023/04/12 06:03:56;;;;;;;11.07;3.50;;;9.10;99.90;;;;;;6290978;28;20040;-81
2023/04/12 06:06:57;;;;;;;4.95;3.22;;;9.20;99.90;;;;;;6286572;28;20059;-80
2023/04/12 06:09:59;;;;;;;10.95;4.00;;;9.20;99.90;;;;;;6291328;28;20448;-79
2023/04/12 06:13:01;;;;;;;6.80;3.88;;;9.20;99.90;;;;;;6293211;28;20052;-80
2023/04/12 06:16:03;;;;;;;8.00;3.63;;;9.20;99.90;;;;;;6290195;28;20071;-81
2023/04/12 06:19:06;;;;;;;3.58;3.25;;;9.30;99.90;;;;;;6290521;28;20055;-81
2023/04/12 06:22:07;;;;;;;4.15;3.60;;;9.40;99.90;;;;;;6294516;28;20108;-79
2023/04/12 06:25:09;;;;;;;7.63;3.85;;;9.40;99.90;;;;;;6292656;28;20057;-80
2023/04/12 06:28:11;;;;;;;5.68;3.78;;;9.50;99.90;;;;;;6288007;28;20060;-81
2023/04/12 06:31:13;;;;;;;9.18;3.75;;;9.50;99.90;;;;;;6294201;28;20116;-80
2023/04/12 06:34:16;;;;;;;5.18;4.10;;;9.60;99.90;;;;;;6291196;28;20056;-79
2023/04/12 06:37:18;;;;;;;8.88;5.00;;;9.70;99.90;;;;;;6291380;28;20044;-81
2023/04/12 06:40:19;;;;;;;9.30;4.35;;;9.70;99.90;;;;;;6290896;28;20048;-81
2023/04/12 06:43:21;;;;;;;6.78;3.42;;;9.80;99.90;;;;;;6288101;28;20036;-80
2023/04/12 06:46:26;;;;;;;8.02;3.50;;;9.80;99.90;;;;;;6289946;28;20417;-79
2023/04/12 06:49:29;;;;;;;6.25;4.30;;;9.90;99.90;;;;;;6297539;28;20045;-80
2023/04/12 06:52:31;;;;;;;4.72;3.80;;;10.00;99.90;;;;;;6294627;28;20047;-81
2023/04/12 06:55:32;;;;;;;8.23;4.68;;;10.00;99.90;;;;;;6291912;28;20048;-80
2023/04/12 06:58:34;;;;;;;7.93;3.63;;;10.10;99.90;;;;;;6298916;28;20064;-81
2023/04/12 07:01:36;;;;;;;7.80;4.05;;;10.20;99.90;;;;;;6296876;28;20064;-81
2023/04/12 07:04:39;;;;;;;10.90;3.33;;;10.20;99.90;;;;;;6297827;28;20068;-81
2023/04/12 07:07:41;;;;;;;5.57;2.88;;;10.30;99.90;;;;;;6297984;28;20036;-81
2023/04/12 07:10:42;;;;;;;8.65;3.38;;;10.40;99.90;;;;;;6295507;28;20044;-82
2023/04/12 07:13:44;;;;;;;4.53;3.95;;;10.40;99.90;;;;;;6293012;28;20422;-80
2023/04/12 07:16:46;;;;;;;7.20;3.70;;;10.50;99.90;;;;;;6293038;28;20064;-81
2023/04/12 07:19:49;;;;;;;10.77;3.38;;;10.60;99.90;;;;;;6293917;28;20064;-82
2023/04/12 07:22:50;;;;;;;5.68;3.72;;;10.60;99.90;;;;;;6293530;28;20562;-80
2023/04/12 07:25:52;;;;;;;8.20;3.28;;;10.60;99.90;;;;;;6293975;28;20052;-81
2023/04/12 07:28:54;;;;;;;9.00;3.90;;;10.70;99.90;;;;;;6293815;28;20043;-82
2023/04/12 07:31:56;;;;;;;7.03;3.80;;;10.70;99.90;;;;;;6293623;28;20044;-80
2023/04/12 07:34:59;;;;;;;5.18;3.72;;;10.80;99.90;;;;;;6293138;28;20048;-80
2023/04/12 07:38:00;;;;;;;5.55;3.38;;;10.80;99.90;;;;;;6292192;28;20087;-80
2023/04/12 07:41:02;;;;;;;7.65;4.68;;;10.90;99.90;;;;;;6295838;28;20506;-80
2023/04/12 07:44:04;;;;;;;5.50;4.00;;;10.90;99.90;;;;;;6293979;28;20056;-80
2023/04/12 07:47:06;;;;;;;13.60;4.22;;;11.10;99.90;;;;;;6291812;28;20064;-80
2023/04/12 07:50:09;;;;;;;8.60;4.32;;;11.20;99.90;;;;;;6271648;28;20038;-81
2023/04/12 07:53:21;;;;;;;7.30;3.97;;;11.30;99.90;;;;;;6265375;28;20056;-80
2023/04/12 07:56:23;;;;;;;10.55;4.03;;;11.40;99.90;;;;;;6271262;28;20427;-79
2023/04/12 07:59:25;;;;;;;9.75;3.92;;;11.40;99.90;;;;;;6265585;28;20052;-82
2023/04/12 08:02:27;;;;;;;7.75;3.60;;;11.50;99.90;;;;;;6266388;28;20056;-80
2023/04/12 08:05:30;;;;;;;7.35;4.00;;;11.60;99.90;;;;;;6269519;28;20053;-81
2023/04/12 08:08:31;;;;;;;5.75;4.22;;;11.60;99.90;;;;;;6265926;28;20048;-82
2023/04/12 08:11:34;;;;;;;9.70;5.03;;;11.60;99.90;;;;;;6267617;28;20064;-83
2023/04/12 08:14:35;;;;;;;7.78;3.80;;;11.60;99.90;;;;;;6263178;28;20042;-81
2023/04/12 08:17:37;;;;;;;6.65;3.20;;;11.50;99.90;;;;;;6266842;28;20052;-81
2023/04/12 08:20:41;;;;;;;7.20;3.47;;;11.50;99.90;;;;;;6265454;28;20045;-81
2023/04/12 08:23:42;;;;;;;10.90;3.38;;;11.50;99.90;;;;;;6263862;28;20041;-81
2023/04/12 08:26:44;;;;;;;7.82;3.80;;;11.70;99.90;;;;;;6266327;28;21531;-80
2023/04/12 08:29:46;;;;;;;6.18;4.05;;;11.60;99.90;;;;;;6270125;28;20140;-81
2023/04/12 08:32:48;;;;;;;11.88;3.65;;;11.70;99.90;;;;;;6271696;28;20053;-85
2023/04/12 08:35:51;;;;;;;4.90;3.65;;;11.80;99.90;;;;;;6266084;28;20471;-82
2023/04/12 08:38:54;;;;;;;8.57;3.92;;;11.80;99.90;;;;;;6266353;28;20049;-82
2023/04/12 08:41:57;;;;;;;5.68;3.78;;;11.70;99.90;;;;;;6268225;28;20130;-80
2023/04/12 08:44:58;;;;;;;5.53;3.80;;;11.80;99.90;;;;;;6268349;28;20620;-79
2023/04/12 08:48:03;;;;;;;11.30;3.70;;;11.80;99.90;;;;;;6264346;28;20040;-80
2023/04/12 08:51:08;;;;;;;9.18;3.63;;;11.70;99.90;;;;;;6271661;28;20041;-80
2023/04/12 08:54:09;;;;;;;7.40;4.60;;;11.60;99.90;;;;;;6268220;28;20083;-80
2023/04/12 08:57:12;;;;;;;9.25;4.85;;;11.60;99.90;;;;;;6270682;28;21027;-80
2023/04/12 09:00:17;;;;;;;7.80;3.63;;;11.60;99.90;;;;;;6261620;28;20407;-80
2023/04/12 09:03:18;;;;;;;6.03;3.33;;;11.50;99.90;;;;;;6260285;28;20045;-82
2023/04/12 09:06:21;;;;;;;6.30;3.10;;;11.40;99.90;;;;;;6259990;28;20199;-79
2023/04/12 09:09:41;;;;;;;5.05;3.25;;;11.40;99.90;;;;;;6260337;28;20045;-80
2023/04/12 09:12:46;;;;;;;7.38;3.80;;;11.30;99.90;;;;;;6259141;28;20081;-80
2023/04/12 09:15:50;;;;;;;7.15;3.28;;;11.30;99.90;;;;;;6264812;28;20052;-81
2023/04/12 09:18:51;;;;;;;5.38;3.60;;;11.30;99.90;;;;;;6265109;28;20569;-81
2023/04/12 09:21:56;;;;;;;6.55;3.50;;;11.40;99.90;;;;;;6266056;28;20040;-82
2023/04/12 09:24:57;;;;;;;14.75;4.18;;;11.40;99.90;;;;;;6264670;28;20556;-82
2023/04/12 09:27:59;;;;;;;5.93;3.60;;;11.50;99.90;;;;;;6262906;28;20033;-80
2023/04/12 09:31:02;;;;;;;7.18;2.83;;;11.50;99.90;;;;;;6264017;28;20568;-81
2023/04/12 09:34:08;;;;;;;6.47;4.05;;;11.50;99.90;;;;;;6261935;28;20052;-82
2023/04/12 09:37:15;;;;;;;10.57;3.35;;;11.50;99.90;;;;;;6263574;28;20057;-79
2023/04/12 09:40:24;;;;;;;7.72;3.50;;;11.50;99.90;;;;;;6262354;28;20045;-78
2023/04/12 09:43:39;;;;;;;6.93;2.85;;;11.50;99.90;;;;;;6262132;28;20053;-81
2023/04/12 09:46:50;;;;;;;3.33;2.83;;;11.50;99.90;;;;;;6261863;28;20056;-81
2023/04/12 09:49:52;;;;;;;9.65;4.15;;;11.50;99.90;;;;;;6263218;28;20050;-80
2023/04/12 09:52:55;;;;;;;6.10;2.95;;;11.60;99.90;;;;;;6260551;28;20057;-80
2023/04/12 09:55:59;;;;;;;5.13;2.65;;;11.60;99.90;;;;;;6262436;28;20045;-81
2023/04/12 09:59:02;;;;;;;14.68;5.18;;;11.70;99.90;;;;;;6262056;28;20048;-80
2023/04/12 10:02:08;;;;;;;7.55;3.45;;;11.70;99.90;;;;;;6261402;28;20059;-80
2023/04/12 10:05:12;;;;;;;5.00;2.92;;;11.70;99.90;;;;;;6263141;28;20163;-80
2023/04/12 10:08:16;;;;;;;8.05;2.38;;;11.80;99.90;;;;;;6261665;28;20049;-79
2023/04/12 10:11:19;;;;;;;5.20;2.55;;;11.90;99.90;;;;;;6261631;28;20185;-80
2023/04/12 10:14:21;;;;;;;7.18;2.63;;;12.00;99.90;;;;;;6264696;28;20041;-82
2023/04/12 10:17:25;;;;;;;5.22;3.65;;;12.10;99.90;;;;;;6263558;28;20065;-82
2023/04/12 10:20:27;;;;;;;5.20;2.03;;;12.20;99.90;;;;;;6262840;28;20518;-82
2023/04/12 10:23:31;;;;;;;5.30;2.53;;;12.20;99.90;;;;;;6265506;28;20323;-80
2023/04/12 10:26:34;;;;;;;3.13;1.83;;;12.30;99.90;;;;;;6269492;28;20054;-80
2023/04/12 10:29:37;;;;;;;2.33;2.10;;;12.40;99.90;;;;;;6266072;28;20171;-78
2023/04/12 10:32:39;;;;;;;3.80;1.63;;;12.50;99.90;;;;;;6266115;28;20057;-80
2023/04/12 10:35:59;;;;;;;2.05;1.67;;;12.60;99.90;;;;;;6269381;28;20104;-81
2023/04/12 10:39:10;;;;;;;4.07;2.80;;;12.50;99.90;;;;;;6265736;28;20049;-84
2023/04/12 10:42:16;;;;;;;3.10;1.50;;;12.50;99.90;;;;;;6264202;28;20053;-80
2023/04/12 10:45:37;;;;;;;4.28;2.00;;;12.50;99.90;;;;;;6264782;28;20483;-80
2023/04/12 10:48:50;;;;;;;6.85;1.80;;;12.60;99.90;;;;;;6260009;28;20132;-81
2023/04/12 10:52:13;;;;;;;3.85;3.47;;;12.60;99.90;;;;;;6263280;28;20075;-82
2023/04/12 10:55:31;;;;;;;5.88;2.33;;;12.70;99.90;;;;;;6265278;28;20099;-80
2023/04/12 10:58:56;;;;;;;3.72;1.60;;;12.90;99.90;;;;;;6261989;28;20128;-81
2023/04/12 11:02:11;;;;;;;3.88;1.90;;;13.00;99.90;;;;;;6264083;28;20048;-82
2023/04/12 11:05:13;;;;;;;3.53;1.48;;;13.10;99.90;;;;;;6259190;28;20132;-81
2023/04/12 11:08:18;;;;;;;1.98;1.60;;;13.10;99.90;;;;;;6259026;28;20045;-80
2023/04/12 11:11:21;;;;;;;1.58;1.30;;;13.10;99.90;;;;;;6262784;28;20050;-81
2023/04/12 11:14:28;;;;;;;2.92;1.33;;;13.20;99.90;;;;;;6261530;28;20128;-80
2023/04/12 11:17:31;;;;;;;6.63;2.38;;;13.30;99.90;;;;;;6261767;28;20130;-80
2023/04/12 11:20:33;;;;;;;2.67;1.20;;;13.40;99.90;;;;;;6258452;28;20049;-77
2023/04/12 11:23:35;;;;;;;4.93;1.10;;;13.50;99.90;;;;;;6261326;28;20507;-81
2023/04/12 11:26:38;;;;;;;2.95;1.23;;;13.60;99.90;;;;;;6263794;28;20095;-82
2023/04/12 11:29:42;;;;;;;4.53;2.10;;;13.70;99.90;;;;;;6261183;28;20119;-79
2023/04/12 11:32:45;;;;;;;2.75;1.52;;;13.80;99.90;;;;;;6261726;28;20580;-80
2023/04/12 11:35:47;;;;;;;3.25;1.25;;;13.80;99.90;;;;;;6262276;28;20053;-79
2023/04/12 11:38:49;;;;;;;1.27;0.98;;;13.90;99.90;;;;;;6259311;28;20496;-81
2023/04/12 11:41:52;;;;;;;3.75;1.67;;;14.00;99.90;;;;;;6254760;28;20141;-78
2023/04/12 11:44:54;;;;;;;2.22;1.08;;;14.20;99.90;;;;;;6261722;28;20044;-80
2023/04/12 11:47:57;;;;;;;1.85;1.20;;;14.40;99.90;;;;;;6257551;28;20630;-80
2023/04/12 11:50:59;;;;;;;1.58;0.95;;;14.70;99.90;;;;;;6262148;28;20068;-82
2023/04/12 11:54:01;;;;;;;1.65;1.27;;;15.00;99.90;;;;;;6261568;28;20051;-81
2023/04/12 11:57:04;;;;;;;2.00;1.38;;;15.30;99.90;;;;;;6266215;28;20056;-82
2023/04/12 12:00:07;;;;;;;2.38;0.90;;;15.50;99.90;;;;;;6259855;28;20033;-84
2023/04/12 12:03:09;;;;;;;4.80;1.73;;;15.90;99.90;;;;;;6257730;28;20059;-81
2023/04/12 12:06:11;;;;;;;1.80;1.23;;;15.90;99.90;;;;;;6256590;28;20532;-79
2023/04/12 12:09:13;;;;;;;1.85;0.70;;;16.00;99.90;;;;;;6259337;28;20068;-82
2023/04/12 12:12:17;;;;;;;2.33;1.23;;;16.20;99.90;;;;;;6259959;28;20051;-78
2023/04/12 12:15:19;;;;;;;3.92;1.02;;;16.20;99.90;;;;;;6257630;28;20045;-80
2023/04/12 12:18:27;;;;;;;2.22;0.90;;;16.20;99.90;;;;;;6261370;28;23026;-81
2023/04/12 12:21:30;;;;;;;1.23;1.13;;;16.20;99.90;;;;;;6257556;28;20049;-82
2023/04/12 12:24:31;;;;;;;3.70;1.17;;;16.30;99.90;;;;;;6252546;28;20052;-80
2023/04/12 12:27:37;;;;;;;3.72;1.50;;;16.30;99.90;;;;;;6264209;28;20040;-81
2023/04/12 12:30:39;;;;;;;2.80;1.73;;;16.60;99.90;;;;;;6261560;28;20059;-79
2023/04/12 12:33:42;;;;;;;0.93;0.80;;;16.80;99.90;;;;;;6264839;28;20122;-82
2023/04/12 12:36:44;;;;;;;2.30;0.93;;;17.10;99.90;;;;;;6262496;28;20448;-81
2023/04/12 12:40:00;;;;;;;3.10;1.08;;;17.10;99.90;;;;;;6262102;28;20052;-82
2023/04/12 12:43:05;;;;;;;1.35;0.80;;;17.10;99.90;;;;;;6258954;28;20164;-81
2023/04/12 12:46:07;;;;;;;4.35;1.20;;;17.00;99.90;;;;;;6259554;28;20486;-83
2023/04/12 12:49:09;;;;;;;1.15;1.05;;;16.90;99.90;;;;;;6262741;28;20049;-84
2023/04/12 12:52:10;;;;;;;0.95;0.73;;;16.90;99.90;;;;;;6262396;28;20148;-82
2023/04/12 12:55:12;;;;;;;3.15;2.88;;;16.90;99.90;;;;;;6262535;28;20064;-79
2023/04/12 12:58:15;;;;;;;3.58;1.25;;;16.70;99.90;;;;;;6256372;28;20063;-82
2023/04/12 13:01:17;;;;;;;3.33;1.35;;;16.50;99.90;;;;;;6256462;28;20136;-83
2023/04/12 13:04:19;;;;;;;7.38;1.58;;;16.20;99.90;;;;;;6259902;28;20037;-83
2023/04/12 13:07:21;;;;;;;4.25;1.52;;;16.10;99.90;;;;;;6258319;28;20122;-83
2023/04/12 13:10:25;;;;;;;4.30;1.58;;;16.20;99.90;;;;;;6255885;28;20135;-81
2023/04/12 13:13:28;;;;;;;1.42;1.33;;;16.20;99.90;;;;;;6264893;28;20052;-81
2023/04/12 13:16:29;;;;;;;6.25;1.02;;;16.40;99.90;;;;;;6285995;28;20039;-79
2023/04/12 13:19:32;;;;;;;2.72;2.40;;;16.90;99.90;;;;;;6267032;28;20041;-82
2023/04/12 13:22:33;;;;;;;4.85;1.23;;;17.10;99.90;;;;;;6255166;28;20521;-81
2023/04/12 13:25:35;;;;;;;8.45;4.43;;;17.40;99.90;;;;;;6260916;28;20040;-81
2023/04/12 13:28:38;;;;;;;1.88;1.52;;;17.80;99.90;;;;;;6257729;28;20511;-81
2023/04/12 13:31:40;;;;;;;1.30;0.80;;;18.10;99.90;;;;;;6261043;28;20056;-82
2023/04/12 13:34:41;;;;;;;5.38;2.40;;;18.30;99.90;;;;;;6260047;28;20064;-84
2023/04/12 13:37:43;;;;;;;0.63;0.60;;;18.20;99.90;;;;;;6261549;28;20163;-83
2023/04/12 13:40:45;;;;;;;0.88;0.73;;;18.40;99.90;;;;;;6259789;28;20041;-85
2023/04/12 13:43:48;;;;;;;1.00;0.70;;;18.40;99.90;;;;;;6258126;28;20037;-82
2023/04/12 13:46:50;;;;;;;6.05;1.35;;;18.40;99.90;;;;;;6261554;28;20049;-80
2023/04/12 13:49:53;;;;;;;3.80;0.88;;;18.30;99.90;;;;;;6257854;28;20045;-81
2023/04/12 13:52:54;;;;;;;3.25;0.85;;;18.00;99.90;;;;;;6258841;28;20041;-81
2023/04/12 13:55:56;;;;;;;1.70;0.90;;;17.60;99.90;;;;;;6260155;28;20055;-85
2023/04/12 13:58:59;;;;;;;1.85;0.93;;;17.20;99.90;;;;;;6260826;28;20498;-84
2023/04/12 14:02:01;;;;;;;4.78;1.10;;;17.00;99.90;;;;;;6260787;28;20073;-79
2023/04/12 14:05:03;;;;;;;2.03;1.17;;;16.80;99.90;;;;;;6259147;28;20041;-82
2023/04/12 14:08:04;;;;;;;2.63;1.35;;;16.50;99.90;;;;;;6256666;28;20037;-83
2023/04/12 14:11:06;;;;;;;3.53;1.55;;;16.10;99.90;;;;;;6259577;28;20060;-84
2023/04/12 14:14:09;;;;;;;4.55;1.83;;;15.70;99.90;;;;;;6262699;28;20365;-83
2023/04/12 14:17:11;;;;;;;4.00;1.38;;;15.40;99.90;;;;;;6263136;28;20402;-84
2023/04/12 14:20:13;;;;;;;3.80;1.67;;;15.00;99.90;;;;;;6263469;28;20053;-81
2023/04/12 14:23:17;;;;;;;4.70;1.65;;;14.20;99.90;;;;;;6261797;28;20049;-80
2023/04/12 14:26:19;;;;;;;2.40;1.98;;;13.60;99.90;;;;;;6263312;28;20056;-80
2023/04/12 14:29:22;;;;;;;2.35;1.50;;;13.10;99.90;;;;;;6263008;28;20056;-79
2023/04/12 14:32:23;;;;;;;4.60;3.55;;;12.70;99.90;;;;;;6266341;28;20048;-81
2023/04/12 14:35:25;;;;;;;3.22;2.20;;;12.60;99.90;;;;;;6266170;28;20112;-81
2023/04/12 14:38:27;;;;;;;5.80;3.15;;;12.30;99.90;;;;;;6262337;28;20049;-81
2023/04/12 14:41:29;;;;;;;2.35;1.15;;;12.20;99.90;;;;;;6264164;28;20044;-82
2023/04/12 14:44:32;;;;;;;1.42;1.33;;;12.00;99.90;;;;;;6262806;28;20072;-82
2023/04/12 14:47:35;;;;;;;2.97;1.33;;;11.80;99.90;;;;;;6269146;28;20060;-87
2023/04/12 14:50:38;;;;;;;5.05;1.55;;;11.70;99.90;;;;;;6260521;28;20061;-83
2023/04/12 14:53:41;;;;;;;2.92;1.42;;;11.70;99.90;;;;;;6262726;28;20053;-81
2023/04/12 14:56:43;;;;;;;4.82;1.35;;;11.60;99.90;;;;;;6264462;28;20049;-81
2023/04/12 14:59:46;;;;;;;1.55;1.17;;;11.60;99.90;;;;;;6261848;28;20041;-81
2023/04/12 15:02:48;;;;;;;1.60;1.17;;;11.50;99.90;;;;;;6263943;28;20037;-81
2023/04/12 15:05:50;;;;;;;2.70;1.25;;;11.50;99.90;;;;;;6263790;28;20047;-81
2023/04/12 15:08:53;;;;;;;3.17;1.45;;;11.50;99.90;;;;;;6261786;28;20442;-82
2023/04/12 15:11:59;;;;;;;1.70;1.17;;;11.50;99.90;;;;;;6263576;28;20470;-84
2023/04/12 15:15:03;;;;;;;1.27;0.85;;;11.50;99.90;;;;;;6267212;28;20099;-82
2023/04/12 15:18:04;;;;;;;2.00;1.55;;;11.40;99.90;;;;;;6264972;28;20041;-81
2023/04/12 15:21:08;;;;;;;2.20;1.42;;;11.40;99.90;;;;;;6265869;28;20040;-78
2023/04/12 15:24:09;;;;;;;0.90;0.90;;;11.30;99.90;;;;;;6264199;28;20060;-82
2023/04/12 15:27:11;;;;;;;3.08;1.30;;;11.30;99.90;;;;;;6264290;28;20056;-83
2023/04/12 15:30:16;;;;;;;4.68;1.10;;;11.30;99.90;;;;;;6265618;28;20056;-83
2023/04/12 15:33:19;;;;;;;3.10;1.15;;;11.30;99.90;;;;;;6266371;28;20053;-82
2023/04/12 15:36:21;;;;;;;1.42;1.20;;;11.40;99.90;;;;;;6265763;28;20053;-81
2023/04/12 15:39:22;;;;;;;1.10;1.00;;;11.40;99.90;;;;;;6265516;28;20041;-82
2023/04/12 15:42:24;;;;;;;1.15;1.05;;;11.50;99.90;;;;;;6264298;28;20052;-82
2023/04/12 15:45:27;;;;;;;2.65;1.20;;;11.50;99.90;;;;;;6261534;28;20342;-83
2023/04/12 15:48:29;;;;;;;1.35;1.23;;;11.50;99.90;;;;;;6262243;28;20041;-82
2023/04/12 15:51:32;;;;;;;1.85;1.50;;;11.40;99.90;;;;;;6263926;28;20045;-82
2023/04/12 15:54:33;;;;;;;1.20;1.10;;;11.40;99.90;;;;;;6261579;28;20045;-81
2023/04/12 15:57:36;;;;;;;1.83;1.00;;;11.50;99.90;;;;;;6267358;28;20045;-83